• vieta
  • image
  • image
  • image
mod_vvisit_countermod_vvisit_countermod_vvisit_countermod_vvisit_countermod_vvisit_countermod_vvisit_counter
mod_vvisit_counterŠiandien56
mod_vvisit_counterVakar257
mod_vvisit_counterŠią savaitę56
mod_vvisit_counterPraėjusią savaitę3960
mod_vvisit_counterŠį mėnesį17389
mod_vvisit_counterPraėjusį mėnesį19793
mod_vvisit_counterViso200992

Mes turime: 4 svečius online
Jūsų IP: 54.221.83.86
 , 
Šiandien: Rugp 31, 2015

Šiandien

Pirmadienis, 31 Rugpjūtis 2015

Orų prognozė

Šiauliai 10 °C
   

Orų prognozė aviacijai

[source: ADDS]
METAR
EYSA 310420Z 00000KT CAVOK 10/09 Q1020 =
TAF
TAF EYSA 310200Z 3103/3112 VRB04KT 9000 NSC TEMPO 3108/3112 BKN030CB =
SR / SS: 03:32 / 17:23 UTC (EYSA 2015-08-31)

Paieška

Lankytojai

Mes turime 4 svečius online

tic logo lt